sensor_id;sensor_type;location;lat;lon;timestamp;pressure;altitude;pressure_sealevel;temperature;humidity
19890;BME280;10107;51.198;6.824;2023-05-10T00:01:42;-21666.63;;;13.30;100.00
19890;BME280;10107;51.198;6.824;2023-05-10T00:05:44;-21666.09;;;13.27;100.00
19890;BME280;10107;51.198;6.824;2023-05-10T00:09:45;-21666.34;;;13.28;100.00
19890;BME280;10107;51.198;6.824;2023-05-10T00:13:48;-21666.63;;;13.30;100.00
19890;BME280;10107;51.198;6.824;2023-05-10T00:17:50;-21666.75;;;13.30;100.00
19890;BME280;10107;51.198;6.824;2023-05-10T00:21:52;-21666.50;;;13.29;100.00
19890;BME280;10107;51.198;6.824;2023-05-10T00:25:54;-21667.41;;;13.33;100.00
19890;BME280;10107;51.198;6.824;2023-05-10T00:29:58;-21666.88;;;13.31;100.00
19890;BME280;10107;51.198;6.824;2023-05-10T00:34:00;-21666.88;;;13.31;100.00
19890;BME280;10107;51.198;6.824;2023-05-10T00:38:01;-21666.34;;;13.28;100.00
19890;BME280;10107;51.198;6.824;2023-05-10T00:42:03;-21666.63;;;13.30;100.00
19890;BME280;10107;51.198;6.824;2023-05-10T00:46:07;-21667.56;;;13.33;100.00
19890;BME280;10107;51.198;6.824;2023-05-10T00:50:10;-21667.69;;;13.34;100.00
19890;BME280;10107;51.198;6.824;2023-05-10T00:54:14;-21667.56;;;13.33;100.00
19890;BME280;10107;51.198;6.824;2023-05-10T00:58:16;-21667.81;;;13.34;100.00
19890;BME280;10107;51.198;6.824;2023-05-10T01:02:19;-21668.06;;;13.35;100.00
19890;BME280;10107;51.198;6.824;2023-05-10T01:06:21;-21667.41;;;13.33;100.00
19890;BME280;10107;51.198;6.824;2023-05-10T01:10:23;-21666.63;;;13.30;100.00
19890;BME280;10107;51.198;6.824;2023-05-10T01:14:26;-21665.69;;;13.26;100.00
19890;BME280;10107;51.198;6.824;2023-05-10T01:18:30;-21665.31;;;13.24;100.00
19890;BME280;10107;51.198;6.824;2023-05-10T01:22:53;-21665.31;;;13.24;100.00
19890;BME280;10107;51.198;6.824;2023-05-10T01:27:35;-21664.50;;;13.21;100.00
19890;BME280;10107;51.198;6.824;2023-05-10T01:32:05;-21663.06;;;13.16;100.00
19890;BME280;10107;51.198;6.824;2023-05-10T01:36:13;-21662.41;;;13.13;100.00
19890;BME280;10107;51.198;6.824;2023-05-10T01:40:30;-21661.88;;;13.11;100.00
19890;BME280;10107;51.198;6.824;2023-05-10T01:44:37;-21660.94;;;13.07;100.00
19890;BME280;10107;51.198;6.824;2023-05-10T01:48:47;-21661.09;;;13.08;100.00
19890;BME280;10107;51.198;6.824;2023-05-10T01:52:53;-21660.69;;;13.06;100.00
19890;BME280;10107;51.198;6.824;2023-05-10T01:57:00;-21660.03;;;13.04;100.00
19890;BME280;10107;51.198;6.824;2023-05-10T02:01:05;-21659.38;;;13.01;100.00
19890;BME280;10107;51.198;6.824;2023-05-10T02:05:12;-21658.44;;;12.98;100.00
19890;BME280;10107;51.198;6.824;2023-05-10T02:09:14;-21657.91;;;12.96;100.00
19890;BME280;10107;51.198;6.824;2023-05-10T02:13:18;-21657.53;;;12.94;100.00
19890;BME280;10107;51.198;6.824;2023-05-10T02:17:20;-21656.72;;;12.91;100.00
19890;BME280;10107;51.198;6.824;2023-05-10T02:21:25;-21657.00;;;12.92;100.00
19890;BME280;10107;51.198;6.824;2023-05-10T02:25:30;-21658.03;;;12.96;100.00
19890;BME280;10107;51.198;6.824;2023-05-10T02:29:35;-21658.84;;;12.99;100.00
19890;BME280;10107;51.198;6.824;2023-05-10T02:33:38;-21660.03;;;13.04;100.00
19890;BME280;10107;51.198;6.824;2023-05-10T02:37:43;-21660.69;;;13.06;100.00
19890;BME280;10107;51.198;6.824;2023-05-10T02:41:48;-21661.34;;;13.09;100.00
19890;BME280;10107;51.198;6.824;2023-05-10T02:45:51;-21661.59;;;13.10;100.00
19890;BME280;10107;51.198;6.824;2023-05-10T02:49:54;-21661.75;;;13.11;100.00
19890;BME280;10107;51.198;6.824;2023-05-10T02:54:00;-21661.88;;;13.11;100.00
19890;BME280;10107;51.198;6.824;2023-05-10T02:58:03;-21662.28;;;13.13;100.00
19890;BME280;10107;51.198;6.824;2023-05-10T03:02:05;-21662.00;;;13.12;100.00
19890;BME280;10107;51.198;6.824;2023-05-10T03:06:07;-21662.66;;;13.14;100.00
19890;BME280;10107;51.198;6.824;2023-05-10T03:10:11;-21663.31;;;13.17;100.00
19890;BME280;10107;51.198;6.824;2023-05-10T03:14:21;-21663.47;;;13.17;100.00
19890;BME280;10107;51.198;6.824;2023-05-10T03:18:29;-21663.19;;;13.16;100.00
19890;BME280;10107;51.198;6.824;2023-05-10T03:22:37;-21662.13;;;13.12;100.00
19890;BME280;10107;51.198;6.824;2023-05-10T03:26:43;-21662.13;;;13.12;100.00
19890;BME280;10107;51.198;6.824;2023-05-10T03:30:50;-21661.59;;;13.10;100.00
19890;BME280;10107;51.198;6.824;2023-05-10T03:34:53;-21660.28;;;13.05;100.00
19890;BME280;10107;51.198;6.824;2023-05-10T03:38:55;-21660.56;;;13.06;100.00
19890;BME280;10107;51.198;6.824;2023-05-10T03:42:58;-21661.09;;;13.08;100.00
19890;BME280;10107;51.198;6.824;2023-05-10T03:47:00;-21661.34;;;13.09;100.00
19890;BME280;10107;51.198;6.824;2023-05-10T03:51:02;-21662.28;;;13.13;100.00
19890;BME280;10107;51.198;6.824;2023-05-10T03:55:05;-21662.28;;;13.13;100.00
19890;BME280;10107;51.198;6.824;2023-05-10T03:59:09;-21662.78;;;13.15;100.00
19890;BME280;10107;51.198;6.824;2023-05-10T04:03:11;-21662.78;;;13.15;100.00
19890;BME280;10107;51.198;6.824;2023-05-10T04:07:13;-21663.72;;;13.18;100.00
19890;BME280;10107;51.198;6.824;2023-05-10T04:11:14;-21664.91;;;13.23;100.00
19890;BME280;10107;51.198;6.824;2023-05-10T04:15:18;-21665.69;;;13.26;100.00
19890;BME280;10107;51.198;6.824;2023-05-10T04:19:19;-21665.44;;;13.25;100.00
19890;BME280;10107;51.198;6.824;2023-05-10T04:23:21;-21665.44;;;13.25;100.00
19890;BME280;10107;51.198;6.824;2023-05-10T04:27:23;-21665.97;;;13.27;100.00
19890;BME280;10107;51.198;6.824;2023-05-10T04:31:26;-21667.03;;;13.31;100.00
19890;BME280;10107;51.198;6.824;2023-05-10T04:35:28;-21667.81;;;13.34;100.00
19890;BME280;10107;51.198;6.824;2023-05-10T04:39:29;-21669.53;;;13.41;100.00
19890;BME280;10107;51.198;6.824;2023-05-10T04:43:31;-21670.06;;;13.43;100.00
19890;BME280;10107;51.198;6.824;2023-05-10T04:47:34;-21670.59;;;13.45;100.00
19890;BME280;10107;51.198;6.824;2023-05-10T04:51:37;-21671.63;;;13.49;100.00
19890;BME280;10107;51.198;6.824;2023-05-10T04:55:38;-21672.97;;;13.54;100.00
19890;BME280;10107;51.198;6.824;2023-05-10T04:59:40;-21674.53;;;13.60;100.00
19890;BME280;10107;51.198;6.824;2023-05-10T05:03:44;-21674.81;;;13.61;100.00
19890;BME280;10107;51.198;6.824;2023-05-10T05:07:46;-21676.38;;;13.68;100.00
19890;BME280;10107;51.198;6.824;2023-05-10T05:11:47;-21679.53;;;13.80;100.00
19890;BME280;10107;51.198;6.824;2023-05-10T05:15:49;-21684.03;;;13.97;100.00
19890;BME280;10107;51.198;6.824;2023-05-10T05:19:52;-21685.34;;;14.02;100.00
19890;BME280;10107;51.198;6.824;2023-05-10T05:23:53;-21686.41;;;14.06;100.00
19890;BME280;10107;51.198;6.824;2023-05-10T05:27:55;-21688.50;;;14.15;100.00
19890;BME280;10107;51.198;6.824;2023-05-10T05:31:57;-21686.41;;;14.06;100.00
19890;BME280;10107;51.198;6.824;2023-05-10T05:36:01;-21685.06;;;14.01;100.00
19890;BME280;10107;51.198;6.824;2023-05-10T05:40:04;-21682.97;;;13.93;100.00
19890;BME280;10107;51.198;6.824;2023-05-10T05:44:06;-21679.28;;;13.79;100.00
19890;BME280;10107;51.198;6.824;2023-05-10T05:48:07;-21678.50;;;13.76;100.00
19890;BME280;10107;51.198;6.824;2023-05-10T05:52:10;-21679.94;;;13.81;100.00
19890;BME280;10107;51.198;6.824;2023-05-10T05:56:13;-21680.19;;;13.82;100.00
19890;BME280;10107;51.198;6.824;2023-05-10T06:00:15;-21680.47;;;13.83;100.00
19890;BME280;10107;51.198;6.824;2023-05-10T06:04:17;-21679.81;;;13.81;100.00
19890;BME280;10107;51.198;6.824;2023-05-10T06:08:20;-21678.22;;;13.75;100.00
19890;BME280;10107;51.198;6.824;2023-05-10T06:12:21;-21677.31;;;13.71;100.00
19890;BME280;10107;51.198;6.824;2023-05-10T06:16:23;-21675.19;;;13.63;100.00
19890;BME280;10107;51.198;6.824;2023-05-10T06:20:25;-21677.44;;;13.72;100.00
19890;BME280;10107;51.198;6.824;2023-05-10T06:24:28;-21680.06;;;13.82;100.00
19890;BME280;10107;51.198;6.824;2023-05-10T06:28:29;-21680.88;;;13.85;100.00
19890;BME280;10107;51.198;6.824;2023-05-10T06:32:32;-21680.88;;;13.85;100.00
19890;BME280;10107;51.198;6.824;2023-05-10T06:36:34;-21679.28;;;13.79;100.00
19890;BME280;10107;51.198;6.824;2023-05-10T06:40:37;-21677.16;;;13.71;100.00
19890;BME280;10107;51.198;6.824;2023-05-10T06:44:42;-21674.53;;;13.60;100.00
19890;BME280;10107;51.198;6.824;2023-05-10T06:48:43;-21674.94;;;13.62;100.00
19890;BME280;10107;51.198;6.824;2023-05-10T06:52:45;-21675.59;;;13.64;100.00
19890;BME280;10107;51.198;6.824;2023-05-10T06:56:48;-21677.97;;;13.74;100.00
19890;BME280;10107;51.198;6.824;2023-05-10T07:00:50;-21681.38;;;13.87;100.00
19890;BME280;10107;51.198;6.824;2023-05-10T07:04:51;-21686.25;;;14.06;100.00
19890;BME280;10107;51.198;6.824;2023-05-10T07:08:53;-21696.94;;;14.48;100.00
19890;BME280;10107;51.198;6.824;2023-05-10T07:12:56;-21701.81;;;14.67;100.00
19890;BME280;10107;51.198;6.824;2023-05-10T07:16:57;-21704.16;;;14.76;100.00
19890;BME280;10107;51.198;6.824;2023-05-10T07:20:59;-21707.59;;;14.89;100.00
19890;BME280;10107;51.198;6.824;2023-05-10T07:25:01;-21709.97;;;14.98;100.00
19890;BME280;10107;51.198;6.824;2023-05-10T07:29:04;-21712.47;;;15.08;100.00
19890;BME280;10107;51.198;6.824;2023-05-10T07:33:05;-21711.81;;;15.05;100.00
19890;BME280;10107;51.198;6.824;2023-05-10T07:37:07;-21714.44;;;15.16;100.00
19890;BME280;10107;51.198;6.824;2023-05-10T07:41:09;-21718.75;;;15.33;100.00
19890;BME280;10107;51.198;6.824;2023-05-10T07:45:12;-21725.06;;;15.57;100.00
19890;BME280;10107;51.198;6.824;2023-05-10T07:49:14;-21728.75;;;15.72;100.00
19890;BME280;10107;51.198;6.824;2023-05-10T07:53:15;-21727.69;;;15.68;100.00
19890;BME280;10107;51.198;6.824;2023-05-10T07:57:18;-21721.53;;;15.43;100.00
19890;BME280;10107;51.198;6.824;2023-05-10T08:01:22;-21717.44;;;15.28;100.00
19890;BME280;10107;51.198;6.824;2023-05-10T08:05:24;-21722.84;;;15.49;100.00
19890;BME280;10107;51.198;6.824;2023-05-10T08:09:25;-21740.97;;;16.19;100.00
19890;BME280;10107;51.198;6.824;2023-05-10T08:13:27;-21770.84;;;17.36;100.00
19890;BME280;10107;51.198;6.824;2023-05-10T08:17:30;-21795.22;;;18.32;100.00
19890;BME280;10107;51.198;6.824;2023-05-10T08:21:31;-21794.28;;;18.28;100.00
19890;BME280;10107;51.198;6.824;2023-05-10T08:25:33;-21785.13;;;17.92;100.00
19890;BME280;10107;51.198;6.824;2023-05-10T08:29:35;-21778.59;;;17.67;100.00
19890;BME280;10107;51.198;6.824;2023-05-10T08:33:38;-21770.84;;;17.36;100.00
19890;BME280;10107;51.198;6.824;2023-05-10T08:37:39;-21766.66;;;17.20;100.00
19890;BME280;10107;51.198;6.824;2023-05-10T08:41:44;-21776.34;;;17.58;100.00
19890;BME280;10107;51.198;6.824;2023-05-10T08:45:45;-21816.09;;;19.14;100.00
19890;BME280;10107;51.198;6.824;2023-05-10T08:49:49;-21828.13;;;19.61;100.00
19890;BME280;10107;51.198;6.824;2023-05-10T08:53:52;-21810.88;;;18.93;100.00
19890;BME280;10107;51.198;6.824;2023-05-10T08:57:54;-21780.03;;;17.72;100.00
19890;BME280;10107;51.198;6.824;2023-05-10T09:01:57;-21763.00;;;17.06;100.00
19890;BME280;10107;51.198;6.824;2023-05-10T09:06:01;-21752.63;;;16.65;100.00
19890;BME280;10107;51.198;6.824;2023-05-10T09:10:04;-21748.06;;;16.47;100.00
19890;BME280;10107;51.198;6.824;2023-05-10T09:14:06;-21746.59;;;16.41;100.00
19890;BME280;10107;51.198;6.824;2023-05-10T09:18:09;-21750.81;;;16.58;100.00
19890;BME280;10107;51.198;6.824;2023-05-10T09:22:12;-21756.31;;;16.79;100.00
19890;BME280;10107;51.198;6.824;2023-05-10T09:26:14;-21759.72;;;16.93;100.00
19890;BME280;10107;51.198;6.824;2023-05-10T09:30:17;-21760.91;;;16.97;100.00
19890;BME280;10107;51.198;6.824;2023-05-10T09:34:28;-21773.47;;;17.47;100.00
19890;BME280;10107;51.198;6.824;2023-05-10T09:38:44;-21780.41;;;17.74;100.00
19890;BME280;10107;51.198;6.824;2023-05-10T09:42:53;-21788.66;;;18.06;100.00
19890;BME280;10107;51.198;6.824;2023-05-10T09:46:55;-21788.53;;;18.06;100.00
19890;BME280;10107;51.198;6.824;2023-05-10T09:50:57;-21777.81;;;17.64;100.00
19890;BME280;10107;51.198;6.824;2023-05-10T09:55:00;-21772.56;;;17.43;100.00
19890;BME280;10107;51.198;6.824;2023-05-10T09:59:02;-21771.25;;;17.38;100.00
19890;BME280;10107;51.198;6.824;2023-05-10T10:03:04;-21774.53;;;17.51;100.00
19890;BME280;10107;51.198;6.824;2023-05-10T10:07:06;-21773.09;;;17.45;100.00
19890;BME280;10107;51.198;6.824;2023-05-10T10:11:09;-21763.66;;;17.08;100.00
19890;BME280;10107;51.198;6.824;2023-05-10T10:15:11;-21757.22;;;16.83;100.00
19890;BME280;10107;51.198;6.824;2023-05-10T10:19:14;-21756.84;;;16.81;100.00
19890;BME280;10107;51.198;6.824;2023-05-10T10:23:16;-21761.56;;;17.00;100.00
19890;BME280;10107;51.198;6.824;2023-05-10T10:27:24;-21775.44;;;17.54;100.00
19890;BME280;10107;51.198;6.824;2023-05-10T10:31:34;-21792.59;;;18.21;100.00
19890;BME280;10107;51.198;6.824;2023-05-10T10:35:38;-21801.88;;;18.58;99.92
19890;BME280;10107;51.198;6.824;2023-05-10T10:39:41;-21811.28;;;18.95;97.78
19890;BME280;10107;51.198;6.824;2023-05-10T10:43:43;-21831.78;;;19.75;95.27
19890;BME280;10107;51.198;6.824;2023-05-10T10:47:45;-21846.50;;;20.33;88.43
19890;BME280;10107;51.198;6.824;2023-05-10T10:52:15;-21841.81;;;20.15;87.61
19890;BME280;10107;51.198;6.824;2023-05-10T10:56:21;-21829.16;;;19.65;88.95
19890;BME280;10107;51.198;6.824;2023-05-10T11:00:28;-21809.19;;;18.87;91.10
19890;BME280;10107;51.198;6.824;2023-05-10T11:04:41;-21797.81;;;18.42;96.03
19890;BME280;10107;51.198;6.824;2023-05-10T11:08:43;-21796.78;;;18.38;98.45
19890;BME280;10107;51.198;6.824;2023-05-10T11:12:52;-21796.38;;;18.36;98.23
19890;BME280;10107;51.198;6.824;2023-05-10T11:16:55;-21793.91;;;18.27;98.60
19890;BME280;10107;51.198;6.824;2023-05-10T11:20:59;-21792.19;;;18.20;99.50
19890;BME280;10107;51.198;6.824;2023-05-10T11:25:03;-21795.06;;;18.31;100.00
19890;BME280;10107;51.198;6.824;2023-05-10T11:29:07;-21796.13;;;18.35;97.49
19890;BME280;10107;51.198;6.824;2023-05-10T11:33:15;-21793.75;;;18.26;97.83
19890;BME280;10107;51.198;6.824;2023-05-10T11:37:18;-21803.19;;;18.63;98.49
19890;BME280;10107;51.198;6.824;2023-05-10T11:41:20;-21811.28;;;18.95;94.21
19890;BME280;10107;51.198;6.824;2023-05-10T11:45:23;-21819.25;;;19.26;91.88
19890;BME280;10107;51.198;6.824;2023-05-10T11:49:26;-21820.41;;;19.31;91.77
19890;BME280;10107;51.198;6.824;2023-05-10T11:53:29;-21820.03;;;19.29;92.63
19890;BME280;10107;51.198;6.824;2023-05-10T11:57:31;-21819.63;;;19.28;93.52
19890;BME280;10107;51.198;6.824;2023-05-10T12:01:33;-21821.47;;;19.35;90.95
19890;BME280;10107;51.198;6.824;2023-05-10T12:05:37;-21829.81;;;19.68;89.58
19890;BME280;10107;51.198;6.824;2023-05-10T12:09:42;-21841.28;;;20.13;85.94
19890;BME280;10107;51.198;6.824;2023-05-10T12:13:44;-21840.00;;;20.08;83.50
19890;BME280;10107;51.198;6.824;2023-05-10T12:17:48;-21823.94;;;19.45;86.63
19890;BME280;10107;51.198;6.824;2023-05-10T12:21:51;-21812.31;;;18.99;88.49
19890;BME280;10107;51.198;6.824;2023-05-10T12:25:52;-21804.47;;;18.68;91.23
19890;BME280;10107;51.198;6.824;2023-05-10T12:29:54;-21795.06;;;18.31;92.95
19890;BME280;10107;51.198;6.824;2023-05-10T12:33:56;-21788.28;;;18.05;96.05
19890;BME280;10107;51.198;6.824;2023-05-10T12:37:59;-21784.34;;;17.89;99.23
19890;BME280;10107;51.198;6.824;2023-05-10T12:42:01;-21780.53;;;17.74;100.00
19890;BME280;10107;51.198;6.824;2023-05-10T12:46:06;-21775.97;;;17.56;100.00
19890;BME280;10107;51.198;6.824;2023-05-10T12:50:09;-21773.22;;;17.46;100.00
19890;BME280;10107;51.198;6.824;2023-05-10T12:54:12;-21769.94;;;17.33;100.00
19890;BME280;10107;51.198;6.824;2023-05-10T12:58:14;-21772.69;;;17.44;100.00
19890;BME280;10107;51.198;6.824;2023-05-10T13:02:16;-21792.47;;;18.21;100.00
19890;BME280;10107;51.198;6.824;2023-05-10T13:06:18;-21803.97;;;18.66;100.00
19890;BME280;10107;51.198;6.824;2023-05-10T13:10:21;-21808.41;;;18.84;100.00
19890;BME280;10107;51.198;6.824;2023-05-10T13:14:24;-21804.63;;;18.69;100.00
19890;BME280;10107;51.198;6.824;2023-05-10T13:18:26;-21791.03;;;18.15;100.00
19890;BME280;10107;51.198;6.824;2023-05-10T13:22:28;-21774.91;;;17.52;100.00
19890;BME280;10107;51.198;6.824;2023-05-10T13:26:32;-21767.31;;;17.22;100.00
19890;BME280;10107;51.198;6.824;2023-05-10T13:30:34;-21765.75;;;17.16;100.00
19890;BME280;10107;51.198;6.824;2023-05-10T13:34:35;-21768.38;;;17.27;100.00
19890;BME280;10107;51.198;6.824;2023-05-10T13:38:37;-21775.97;;;17.56;100.00
19890;BME280;10107;51.198;6.824;2023-05-10T13:42:40;-21784.34;;;17.89;100.00
19890;BME280;10107;51.198;6.824;2023-05-10T13:46:42;-21790.63;;;18.14;100.00
19890;BME280;10107;51.198;6.824;2023-05-10T13:50:43;-21795.84;;;18.34;100.00
19890;BME280;10107;51.198;6.824;2023-05-10T13:54:45;-21796.78;;;18.38;100.00
19890;BME280;10107;51.198;6.824;2023-05-10T13:58:48;-21795.34;;;18.32;99.81
19890;BME280;10107;51.198;6.824;2023-05-10T14:02:50;-21791.53;;;18.17;100.00
19890;BME280;10107;51.198;6.824;2023-05-10T14:06:52;-21789.44;;;18.09;100.00
19890;BME280;10107;51.198;6.824;2023-05-10T14:10:53;-21786.69;;;17.98;100.00
19890;BME280;10107;51.198;6.824;2023-05-10T14:14:57;-21783.16;;;17.85;100.00
19890;BME280;10107;51.198;6.824;2023-05-10T14:18:59;-21780.16;;;17.73;100.00
19890;BME280;10107;51.198;6.824;2023-05-10T14:23:01;-21779.09;;;17.69;100.00
19890;BME280;10107;51.198;6.824;2023-05-10T14:27:03;-21782.38;;;17.81;100.00
19890;BME280;10107;51.198;6.824;2023-05-10T14:31:07;-21789.84;;;18.11;100.00
19890;BME280;10107;51.198;6.824;2023-05-10T14:35:09;-21794.41;;;18.29;100.00
19890;BME280;10107;51.198;6.824;2023-05-10T14:39:11;-21796.78;;;18.38;100.00
19890;BME280;10107;51.198;6.824;2023-05-10T14:43:13;-21797.16;;;18.39;100.00
19890;BME280;10107;51.198;6.824;2023-05-10T14:47:16;-21796.91;;;18.38;100.00
19890;BME280;10107;51.198;6.824;2023-05-10T14:51:17;-21797.03;;;18.39;100.00
19890;BME280;10107;51.198;6.824;2023-05-10T14:55:22;-21798.47;;;18.45;100.00
19890;BME280;10107;51.198;6.824;2023-05-10T14:59:23;-21796.50;;;18.37;100.00
19890;BME280;10107;51.198;6.824;2023-05-10T15:03:26;-21789.44;;;18.09;100.00
19890;BME280;10107;51.198;6.824;2023-05-10T15:07:28;-21787.50;;;18.01;100.00
19890;BME280;10107;51.198;6.824;2023-05-10T15:11:31;-21793.50;;;18.25;100.00
19890;BME280;10107;51.198;6.824;2023-05-10T15:15:33;-21796.91;;;18.38;100.00
19890;BME280;10107;51.198;6.824;2023-05-10T15:19:36;-21799.25;;;18.48;100.00
19890;BME280;10107;51.198;6.824;2023-05-10T15:23:38;-21801.47;;;18.56;100.00
19890;BME280;10107;51.198;6.824;2023-05-10T15:27:39;-21807.09;;;18.78;100.00
19890;BME280;10107;51.198;6.824;2023-05-10T15:31:41;-21809.72;;;18.89;100.00
19890;BME280;10107;51.198;6.824;2023-05-10T15:35:44;-21811.03;;;18.94;100.00
19890;BME280;10107;51.198;6.824;2023-05-10T15:39:45;-21805.28;;;18.71;100.00
19890;BME280;10107;51.198;6.824;2023-05-10T15:43:48;-21796.50;;;18.37;100.00
19890;BME280;10107;51.198;6.824;2023-05-10T15:47:50;-21794.69;;;18.30;100.00
19890;BME280;10107;51.198;6.824;2023-05-10T15:51:53;-21792.31;;;18.20;100.00
19890;BME280;10107;51.198;6.824;2023-05-10T15:55:55;-21786.44;;;17.97;100.00
19890;BME280;10107;51.198;6.824;2023-05-10T15:59:56;-21780.81;;;17.75;100.00
19890;BME280;10107;51.198;6.824;2023-05-10T16:03:58;-21781.72;;;17.79;100.00
19890;BME280;10107;51.198;6.824;2023-05-10T16:08:01;-21786.03;;;17.96;100.00
19890;BME280;10107;51.198;6.824;2023-05-10T16:12:03;-21790.50;;;18.13;100.00
19890;BME280;10107;51.198;6.824;2023-05-10T16:16:05;-21794.94;;;18.31;100.00
19890;BME280;10107;51.198;6.824;2023-05-10T16:20:08;-21797.81;;;18.42;100.00
19890;BME280;10107;51.198;6.824;2023-05-10T16:24:11;-21796.38;;;18.36;98.71
19890;BME280;10107;51.198;6.824;2023-05-10T16:28:13;-21792.72;;;18.22;99.57
19890;BME280;10107;51.198;6.824;2023-05-10T16:32:15;-21791.16;;;18.16;100.00
19890;BME280;10107;51.198;6.824;2023-05-10T16:36:16;-21792.19;;;18.20;98.94
19890;BME280;10107;51.198;6.824;2023-05-10T16:40:20;-21786.44;;;17.97;95.16
19890;BME280;10107;51.198;6.824;2023-05-10T16:44:21;-21774.00;;;17.49;97.74
19890;BME280;10107;51.198;6.824;2023-05-10T16:48:23;-21770.59;;;17.35;100.00
19890;BME280;10107;51.198;6.824;2023-05-10T16:52:25;-21767.31;;;17.22;99.59
19890;BME280;10107;51.198;6.824;2023-05-10T16:56:28;-21762.75;;;17.05;100.00
19890;BME280;10107;51.198;6.824;2023-05-10T17:00:30;-21760.50;;;16.96;100.00
19890;BME280;10107;51.198;6.824;2023-05-10T17:04:31;-21758.94;;;16.90;99.80
19890;BME280;10107;51.198;6.824;2023-05-10T17:08:33;-21758.53;;;16.88;98.27
19890;BME280;10107;51.198;6.824;2023-05-10T17:12:36;-21762.09;;;17.02;99.37
19890;BME280;10107;51.198;6.824;2023-05-10T17:16:38;-21763.91;;;17.09;97.60
19890;BME280;10107;51.198;6.824;2023-05-10T17:20:42;-21762.47;;;17.03;98.79
19890;BME280;10107;51.198;6.824;2023-05-10T17:24:44;-21764.44;;;17.11;99.12
19890;BME280;10107;51.198;6.824;2023-05-10T17:28:47;-21768.63;;;17.28;100.00
19890;BME280;10107;51.198;6.824;2023-05-10T17:32:49;-21772.03;;;17.41;97.80
19890;BME280;10107;51.198;6.824;2023-05-10T17:36:51;-21774.13;;;17.49;99.33
19890;BME280;10107;51.198;6.824;2023-05-10T17:40:53;-21767.19;;;17.22;98.01
19890;BME280;10107;51.198;6.824;2023-05-10T17:44:56;-21759.19;;;16.91;100.00
19890;BME280;10107;51.198;6.824;2023-05-10T17:48:58;-21759.06;;;16.90;100.00
19890;BME280;10107;51.198;6.824;2023-05-10T17:52:59;-21759.19;;;16.91;100.00
19890;BME280;10107;51.198;6.824;2023-05-10T17:57:03;-21759.84;;;16.93;100.00
19890;BME280;10107;51.198;6.824;2023-05-10T18:01:06;-21759.06;;;16.90;100.00
19890;BME280;10107;51.198;6.824;2023-05-10T18:05:09;-21756.31;;;16.79;99.96
19890;BME280;10107;51.198;6.824;2023-05-10T18:09:11;-21752.13;;;16.63;100.00
19890;BME280;10107;51.198;6.824;2023-05-10T18:13:13;-21747.00;;;16.43;100.00
19890;BME280;10107;51.198;6.824;2023-05-10T18:17:16;-21740.84;;;16.19;100.00
19890;BME280;10107;51.198;6.824;2023-05-10T18:21:19;-21737.69;;;16.07;100.00
19890;BME280;10107;51.198;6.824;2023-05-10T18:25:21;-21734.00;;;15.92;100.00
19890;BME280;10107;51.198;6.824;2023-05-10T18:29:23;-21731.25;;;15.81;100.00
19890;BME280;10107;51.198;6.824;2023-05-10T18:33:26;-21729.28;;;15.74;100.00
19890;BME280;10107;51.198;6.824;2023-05-10T18:37:28;-21726.91;;;15.64;100.00
19890;BME280;10107;51.198;6.824;2023-05-10T18:41:29;-21724.41;;;15.55;100.00
19890;BME280;10107;51.198;6.824;2023-05-10T18:45:32;-21721.13;;;15.42;100.00
19890;BME280;10107;51.198;6.824;2023-05-10T18:49:35;-21718.50;;;15.32;100.00
19890;BME280;10107;51.198;6.824;2023-05-10T18:53:38;-21716.13;;;15.22;100.00
19890;BME280;10107;51.198;6.824;2023-05-10T18:57:40;-21713.09;;;15.11;100.00
19890;BME280;10107;51.198;6.824;2023-05-10T19:01:42;-21710.09;;;14.99;100.00
19890;BME280;10107;51.198;6.824;2023-05-10T19:05:45;-21706.00;;;14.83;100.00
19890;BME280;10107;51.198;6.824;2023-05-10T19:09:48;-21703.25;;;14.72;100.00
19890;BME280;10107;51.198;6.824;2023-05-10T19:13:50;-21700.88;;;14.63;100.00
19890;BME280;10107;51.198;6.824;2023-05-10T19:18:00;-21698.50;;;14.54;100.00
19890;BME280;10107;51.198;6.824;2023-05-10T19:22:02;-21695.63;;;14.42;100.00
19890;BME280;10107;51.198;6.824;2023-05-10T19:26:04;-21693.50;;;14.34;100.00
19890;BME280;10107;51.198;6.824;2023-05-10T19:30:07;-21690.09;;;14.21;100.00
19890;BME280;10107;51.198;6.824;2023-05-10T19:34:10;-21687.72;;;14.12;100.00
19890;BME280;10107;51.198;6.824;2023-05-10T19:38:12;-21685.34;;;14.02;100.00
19890;BME280;10107;51.198;6.824;2023-05-10T19:42:14;-21683.22;;;13.94;100.00
19890;BME280;10107;51.198;6.824;2023-05-10T19:46:16;-21681.53;;;13.88;100.00
19890;BME280;10107;51.198;6.824;2023-05-10T19:50:19;-21679.28;;;13.79;100.00
19890;BME280;10107;51.198;6.824;2023-05-10T19:54:21;-21677.56;;;13.72;100.00
19890;BME280;10107;51.198;6.824;2023-05-10T19:58:23;-21675.59;;;13.64;100.00
19890;BME280;10107;51.198;6.824;2023-05-10T20:02:24;-21673.47;;;13.56;100.00
19890;BME280;10107;51.198;6.824;2023-05-10T20:06:28;-21671.38;;;13.48;100.00
19890;BME280;10107;51.198;6.824;2023-05-10T20:10:31;-21670.44;;;13.44;100.00
19890;BME280;10107;51.198;6.824;2023-05-10T20:14:33;-21668.88;;;13.38;100.00
19890;BME280;10107;51.198;6.824;2023-05-10T20:18:35;-21667.69;;;13.34;100.00
19890;BME280;10107;51.198;6.824;2023-05-10T20:22:39;-21665.56;;;13.25;100.00
19890;BME280;10107;51.198;6.824;2023-05-10T20:26:41;-21664.13;;;13.20;100.00
19890;BME280;10107;51.198;6.824;2023-05-10T20:30:42;-21663.47;;;13.17;100.00
19890;BME280;10107;51.198;6.824;2023-05-10T20:34:45;-21662.66;;;13.14;100.00
19890;BME280;10107;51.198;6.824;2023-05-10T20:38:48;-21662.28;;;13.13;100.00
19890;BME280;10107;51.198;6.824;2023-05-10T20:42:49;-21662.13;;;13.12;100.00
19890;BME280;10107;51.198;6.824;2023-05-10T20:46:53;-21661.22;;;13.08;100.00
19890;BME280;10107;51.198;6.824;2023-05-10T20:50:55;-21660.16;;;13.04;100.00
19890;BME280;10107;51.198;6.824;2023-05-10T20:54:58;-21660.03;;;13.04;100.00